createdAt,value
2019-05-29T00:01:16.661Z,20.00
2019-05-29T00:03:43.186Z,20.90
2019-05-29T00:06:12.787Z,20.00
2019-05-29T00:08:42.389Z,20.00
2019-05-29T00:11:12.286Z,20.00
2019-05-29T00:13:42.407Z,20.00
2019-05-29T00:16:12.438Z,20.00
2019-05-29T00:18:42.653Z,20.00
2019-05-29T00:21:13.079Z,20.00
2019-05-29T00:23:43.303Z,19.90
2019-05-29T00:26:12.971Z,19.90
2019-05-29T00:28:42.644Z,19.90
2019-05-29T00:31:12.525Z,19.90
2019-05-29T00:33:42.174Z,19.90
2019-05-29T00:36:12.343Z,19.90
2019-05-29T00:38:42.547Z,19.90
2019-05-29T00:41:12.967Z,19.90
2019-05-29T00:43:44.277Z,19.80
2019-05-29T00:46:13.859Z,19.90
2019-05-29T00:48:43.461Z,19.80
2019-05-29T00:51:13.101Z,19.80
2019-05-29T00:53:42.874Z,19.80
2019-05-29T00:56:12.701Z,19.80
2019-05-29T00:58:42.345Z,19.80
2019-05-29T01:01:13.292Z,19.80
2019-05-29T01:03:43.607Z,19.80
2019-05-29T01:06:13.971Z,19.70
2019-05-29T01:08:44.071Z,19.70
2019-05-29T01:11:14.695Z,19.70
2019-05-29T01:13:44.799Z,19.70
2019-05-29T01:16:15.362Z,19.70
2019-05-29T01:18:45.527Z,19.70
2019-05-29T01:21:15.956Z,19.70
2019-05-29T01:23:46.124Z,19.60
2019-05-29T01:26:16.507Z,19.70
2019-05-29T01:28:46.668Z,19.60
2019-05-29T01:31:17.746Z,19.60
2019-05-29T01:33:47.594Z,19.60
2019-05-29T01:36:18.019Z,19.60
2019-05-29T01:38:48.154Z,19.60
2019-05-29T01:41:17.897Z,19.60
2019-05-29T01:43:47.552Z,19.60
2019-05-29T01:46:17.305Z,19.60
2019-05-29T01:48:46.965Z,19.60
2019-05-29T01:51:17.461Z,19.60
2019-05-29T01:53:47.585Z,19.50
2019-05-29T01:56:17.636Z,19.50
2019-05-29T01:58:47.783Z,19.50
2019-05-29T02:01:18.020Z,19.50
2019-05-29T02:03:48.272Z,19.50
2019-05-29T02:06:17.955Z,19.50
2019-05-29T02:08:47.564Z,19.50
2019-05-29T02:11:17.234Z,19.50
2019-05-29T02:13:46.952Z,19.40
2019-05-29T02:16:16.581Z,19.40
2019-05-29T02:18:46.219Z,19.50
2019-05-29T02:21:15.990Z,19.40
2019-05-29T02:23:45.601Z,19.40
2019-05-29T02:26:16.096Z,19.40
2019-05-29T02:28:46.389Z,19.40
2019-05-29T02:31:17.686Z,19.40
2019-05-29T02:33:47.481Z,19.40
2019-05-29T02:36:17.852Z,19.40
2019-05-29T02:38:48.026Z,19.30
2019-05-29T02:41:19.108Z,19.40
2019-05-29T02:43:49.038Z,19.30
2019-05-29T02:46:19.511Z,19.30
2019-05-29T02:48:49.812Z,19.30
2019-05-29T02:51:19.822Z,19.30
2019-05-29T02:53:49.975Z,19.30
2019-05-29T02:56:20.657Z,19.30
2019-05-29T02:58:50.892Z,19.30
2019-05-29T03:01:21.509Z,19.30
2019-05-29T03:03:51.990Z,19.30
2019-05-29T03:06:22.292Z,19.30
2019-05-29T03:08:52.912Z,19.20
2019-05-29T03:11:23.070Z,19.30
2019-05-29T03:13:53.858Z,19.20
2019-05-29T03:16:24.373Z,19.20
2019-05-29T03:18:54.762Z,19.20
2019-05-29T03:21:25.946Z,19.20
2019-05-29T03:23:57.452Z,19.20
2019-05-29T03:26:30.360Z,19.20
2019-05-29T03:28:58.415Z,19.20
2019-05-29T03:31:34.210Z,19.10
2019-05-29T03:33:59.448Z,19.10
2019-05-29T03:36:37.595Z,19.10
2019-05-29T03:39:00.464Z,19.20
2019-05-29T03:41:30.317Z,19.10
2019-05-29T03:44:00.003Z,19.10
2019-05-29T03:46:37.756Z,19.10
2019-05-29T03:49:01.207Z,19.10
2019-05-29T03:51:32.560Z,19.10
2019-05-29T03:54:02.100Z,19.10
2019-05-29T03:56:32.579Z,19.10
2019-05-29T03:59:02.856Z,19.10
2019-05-29T04:01:33.267Z,19.10
2019-05-29T04:04:03.808Z,19.10
2019-05-29T04:06:33.915Z,19.10
2019-05-29T04:09:06.375Z,19.10
2019-05-29T04:11:37.819Z,19.10
2019-05-29T04:14:07.900Z,19.10
2019-05-29T04:16:58.347Z,19.00
2019-05-29T04:19:09.466Z,19.10
2019-05-29T04:21:39.216Z,19.20
2019-05-29T04:24:08.861Z,19.10
2019-05-29T04:26:40.815Z,19.10
2019-05-29T04:29:11.326Z,19.10
2019-05-29T04:31:41.037Z,19.10
2019-05-29T04:34:10.691Z,19.00
2019-05-29T04:36:40.344Z,19.00
2019-05-29T04:39:10.053Z,19.00
2019-05-29T04:41:39.658Z,19.00
2019-05-29T04:44:09.379Z,19.00
2019-05-29T04:46:40.527Z,19.00
2019-05-29T04:49:10.363Z,18.90
2019-05-29T04:51:40.103Z,18.90
2019-05-29T04:54:09.789Z,18.90
2019-05-29T04:56:39.510Z,18.90
2019-05-29T04:59:09.337Z,18.90
2019-05-29T05:01:39.295Z,18.90
2019-05-29T05:04:09.609Z,18.90
2019-05-29T05:06:39.560Z,18.90
2019-05-29T05:09:09.875Z,18.90
2019-05-29T05:11:39.680Z,18.90
2019-05-29T05:14:09.342Z,18.90
2019-05-29T05:17:01.746Z,18.90
2019-05-29T05:19:33.921Z,18.90
2019-05-29T05:22:11.126Z,18.80
2019-05-29T05:24:43.952Z,18.90
2019-05-29T05:27:12.580Z,18.90
2019-05-29T05:29:42.311Z,18.90
2019-05-29T05:32:12.073Z,18.80
2019-05-29T05:34:41.762Z,18.80
2019-05-29T05:37:11.458Z,18.80
2019-05-29T05:39:41.256Z,18.80
2019-05-29T05:42:10.950Z,18.80
2019-05-29T05:44:41.160Z,18.80
2019-05-29T05:47:11.381Z,18.80
2019-05-29T05:49:41.805Z,18.90
2019-05-29T05:52:12.246Z,18.80
2019-05-29T05:54:41.935Z,18.80
2019-05-29T05:57:11.948Z,18.80
2019-05-29T05:59:42.087Z,18.80
2019-05-29T06:02:12.284Z,18.80
2019-05-29T06:04:42.188Z,18.80
2019-05-29T06:07:12.419Z,17.90
2019-05-29T06:09:42.579Z,18.80
2019-05-29T06:12:12.845Z,18.80
2019-05-29T06:14:42.789Z,18.80
2019-05-29T06:17:13.068Z,18.80
2019-05-29T06:19:43.165Z,18.80
2019-05-29T06:22:13.496Z,18.80
2019-05-29T06:24:44.722Z,18.80
2019-05-29T06:27:14.455Z,18.80
2019-05-29T06:29:45.049Z,18.80
2019-05-29T06:32:14.776Z,18.80
2019-05-29T06:34:44.499Z,18.80
2019-05-29T06:37:14.170Z,18.90
2019-05-29T06:39:43.988Z,18.80
2019-05-29T06:42:15.402Z,18.80
2019-05-29T06:44:49.225Z,18.90
2019-05-29T06:47:18.186Z,18.80
2019-05-29T06:49:47.853Z,18.80
2019-05-29T06:52:17.544Z,18.80
2019-05-29T06:54:48.196Z,18.80
2019-05-29T06:57:18.390Z,18.80
2019-05-29T06:59:48.938Z,18.80
2019-05-29T07:02:19.219Z,18.80
2019-05-29T07:04:48.826Z,18.80
2019-05-29T07:07:18.489Z,18.90
2019-05-29T07:09:48.121Z,18.90
2019-05-29T07:12:17.688Z,18.90
2019-05-29T07:14:47.398Z,18.90
2019-05-29T07:17:17.028Z,18.90
2019-05-29T07:19:57.782Z,18.90
2019-05-29T07:22:18.034Z,18.90
2019-05-29T07:24:47.648Z,18.90
2019-05-29T07:27:17.339Z,18.90
2019-05-29T07:29:47.346Z,18.90
2019-05-29T07:32:17.552Z,19.00
2019-05-29T07:35:02.433Z,19.00
2019-05-29T07:37:18.635Z,19.00
2019-05-29T07:39:48.363Z,18.90
2019-05-29T07:42:18.014Z,18.90
2019-05-29T07:44:49.266Z,18.90
2019-05-29T07:47:18.861Z,18.90
2019-05-29T07:49:50.142Z,18.80
2019-05-29T07:52:19.753Z,18.90
2019-05-29T07:54:49.963Z,18.90
2019-05-29T07:57:20.286Z,18.90
2019-05-29T07:59:49.947Z,18.80
2019-05-29T08:02:19.656Z,18.80
2019-05-29T08:04:50.162Z,18.80
2019-05-29T08:07:19.778Z,18.90
2019-05-29T08:09:49.849Z,18.90
2019-05-29T08:12:20.028Z,18.80
2019-05-29T08:14:50.267Z,18.80
2019-05-29T08:17:20.662Z,18.70
2019-05-29T08:20:04.395Z,18.70
2019-05-29T08:22:33.771Z,18.70
2019-05-29T08:24:54.729Z,18.70
2019-05-29T08:27:24.314Z,18.70
2019-05-29T08:29:53.947Z,18.80
2019-05-29T08:32:23.549Z,18.80
2019-05-29T08:34:53.243Z,18.80
2019-05-29T08:37:22.872Z,18.80
2019-05-29T08:39:52.521Z,18.80
2019-05-29T08:42:23.736Z,18.90
2019-05-29T08:44:56.335Z,18.90
2019-05-29T08:47:25.951Z,18.90
2019-05-29T08:50:08.574Z,18.80
2019-05-29T08:52:27.137Z,18.90
2019-05-29T08:54:57.015Z,18.90
2019-05-29T08:57:28.007Z,18.90
2019-05-29T08:59:57.982Z,18.90
2019-05-29T09:02:27.759Z,18.90
2019-05-29T09:04:57.557Z,18.90
2019-05-29T09:07:27.571Z,18.90
2019-05-29T09:09:57.347Z,18.90
2019-05-29T09:12:29.826Z,18.80
2019-05-29T09:14:58.798Z,18.80
2019-05-29T09:17:28.605Z,18.80
2019-05-29T09:19:58.325Z,18.90
2019-05-29T09:22:27.969Z,18.90
2019-05-29T09:24:57.655Z,19.00
2019-05-29T09:27:27.614Z,19.00
2019-05-29T09:29:57.471Z,19.10
2019-05-29T09:32:48.364Z,19.10
2019-05-29T09:34:58.531Z,19.10
2019-05-29T09:37:28.395Z,19.10
2019-05-29T09:39:58.049Z,19.20
2019-05-29T09:42:27.892Z,19.20
2019-05-29T09:44:57.688Z,19.20
2019-05-29T09:47:27.496Z,19.30
2019-05-29T09:49:57.553Z,19.30
2019-05-29T09:52:30.634Z,19.30
2019-05-29T09:55:00.290Z,19.40
2019-05-29T09:57:30.590Z,19.40
2019-05-29T10:00:02.145Z,19.50
2019-05-29T10:02:33.754Z,19.50
2019-05-29T10:05:05.911Z,19.50
2019-05-29T10:07:36.122Z,19.50
2019-05-29T10:10:07.271Z,19.60
2019-05-29T10:12:37.221Z,19.60
2019-05-29T10:15:07.415Z,19.60
2019-05-29T10:17:37.394Z,19.70
2019-05-29T10:20:07.430Z,19.70
2019-05-29T10:22:37.259Z,19.70
2019-05-29T10:25:07.496Z,19.80
2019-05-29T10:27:37.534Z,19.80
2019-05-29T10:30:07.757Z,19.80
2019-05-29T10:32:37.984Z,19.80
2019-05-29T10:35:07.913Z,19.90
2019-05-29T10:37:37.783Z,19.90
2019-05-29T10:40:07.708Z,19.90
2019-05-29T10:42:38.091Z,20.00
2019-05-29T10:45:08.201Z,20.00
2019-05-29T10:47:38.086Z,20.00
2019-05-29T10:50:08.870Z,20.00
2019-05-29T10:52:40.596Z,20.00
2019-05-29T10:55:10.869Z,20.00
2019-05-29T10:57:41.457Z,20.00
2019-05-29T11:00:11.710Z,20.10
2019-05-29T11:02:41.930Z,20.10
2019-05-29T11:05:12.291Z,20.10
2019-05-29T11:07:42.273Z,20.10
2019-05-29T11:10:13.604Z,20.20
2019-05-29T11:12:43.709Z,20.20
2019-05-29T11:15:21.526Z,20.20
2019-05-29T11:17:47.060Z,20.30
2019-05-29T11:20:17.463Z,20.30
2019-05-29T11:22:47.607Z,20.30
2019-05-29T11:25:23.680Z,20.30
2019-05-29T11:27:48.613Z,20.40
2019-05-29T11:30:19.100Z,20.40
2019-05-29T11:32:50.925Z,20.50
2019-05-29T11:35:21.663Z,20.50
2019-05-29T11:37:52.530Z,20.50
2019-05-29T11:40:22.889Z,20.50
2019-05-29T11:42:52.793Z,20.50
2019-05-29T11:45:23.115Z,20.50
2019-05-29T11:47:53.899Z,20.50
2019-05-29T11:50:24.142Z,20.50
2019-05-29T11:52:54.418Z,20.50
2019-05-29T11:55:24.081Z,20.50
2019-05-29T11:57:53.898Z,20.60
2019-05-29T12:00:23.598Z,20.60
2019-05-29T12:02:54.011Z,20.50
2019-05-29T12:05:24.895Z,20.60
2019-05-29T12:07:55.476Z,20.60
2019-05-29T12:10:25.156Z,20.60
2019-05-29T12:12:55.432Z,20.60
2019-05-29T12:15:25.596Z,20.60
2019-05-29T12:18:08.783Z,20.60
2019-05-29T12:20:28.612Z,20.60
2019-05-29T12:23:18.636Z,20.60
2019-05-29T12:25:29.336Z,20.70
2019-05-29T12:27:59.298Z,20.70
2019-05-29T12:30:29.658Z,20.70
2019-05-29T12:32:59.278Z,20.70
2019-05-29T12:35:28.975Z,20.80
2019-05-29T12:37:59.450Z,20.70
2019-05-29T12:40:29.705Z,20.80
2019-05-29T12:43:00.178Z,20.80
2019-05-29T12:45:30.542Z,20.80
2019-05-29T12:48:04.476Z,20.80
2019-05-29T12:50:34.507Z,20.80
2019-05-29T12:53:04.027Z,20.80
2019-05-29T12:55:33.862Z,20.90
2019-05-29T12:58:04.466Z,20.80
2019-05-29T13:00:35.177Z,20.90
2019-05-29T13:03:05.448Z,20.90
2019-05-29T13:05:35.704Z,20.90
2019-05-29T13:08:05.986Z,20.90
2019-05-29T13:10:36.993Z,20.90
2019-05-29T13:13:10.886Z,20.90
2019-05-29T13:15:39.289Z,21.00
2019-05-29T13:18:10.250Z,21.00
2019-05-29T13:20:41.321Z,21.00
2019-05-29T13:23:11.932Z,21.00
2019-05-29T13:25:42.381Z,21.00
2019-05-29T13:28:12.566Z,21.10
2019-05-29T13:30:42.761Z,21.00
2019-05-29T13:33:13.063Z,21.10
2019-05-29T13:35:44.004Z,21.10
2019-05-29T13:38:14.923Z,21.10
2019-05-29T13:40:45.756Z,21.10
2019-05-29T13:43:16.341Z,21.10
2019-05-29T13:45:46.528Z,21.10
2019-05-29T13:48:17.174Z,21.10
2019-05-29T13:50:48.869Z,21.10
2019-05-29T13:53:21.210Z,21.20
2019-05-29T13:55:52.407Z,21.10
2019-05-29T13:58:22.655Z,21.20
2019-05-29T14:00:54.405Z,21.20
2019-05-29T14:03:25.122Z,21.20
2019-05-29T14:05:55.634Z,21.20
2019-05-29T14:08:26.227Z,21.20
2019-05-29T14:10:57.052Z,21.20
2019-05-29T14:13:28.604Z,21.30
2019-05-29T14:16:02.283Z,21.30
2019-05-29T14:18:33.378Z,21.30
2019-05-29T14:21:05.104Z,21.30
2019-05-29T14:23:39.379Z,21.30
2019-05-29T14:26:08.677Z,21.30
2019-05-29T14:28:39.692Z,21.30
2019-05-29T14:31:12.078Z,21.30
2019-05-29T14:33:42.749Z,21.30
2019-05-29T14:36:13.104Z,21.30
2019-05-29T14:38:43.768Z,21.40
2019-05-29T14:41:14.427Z,21.40
2019-05-29T14:43:46.404Z,21.40
2019-05-29T14:46:16.178Z,21.40
2019-05-29T14:48:48.389Z,21.40
2019-05-29T14:51:20.004Z,21.40
2019-05-29T14:53:50.497Z,21.40
2019-05-29T14:56:21.031Z,21.40
2019-05-29T14:58:51.155Z,21.40
2019-05-29T15:01:22.008Z,21.50
2019-05-29T15:03:53.256Z,21.50
2019-05-29T15:06:23.548Z,21.50
2019-05-29T15:08:53.869Z,21.50
2019-05-29T15:11:24.675Z,21.50
2019-05-29T15:13:55.334Z,21.50
2019-05-29T15:16:25.674Z,21.50
2019-05-29T15:18:57.384Z,21.50
2019-05-29T15:21:29.653Z,21.50
2019-05-29T15:23:59.501Z,21.60
2019-05-29T15:26:30.683Z,21.60
2019-05-29T15:29:01.446Z,21.60
2019-05-29T15:31:33.108Z,21.50
2019-05-29T15:34:04.408Z,21.60
2019-05-29T15:36:35.147Z,21.60
2019-05-29T15:39:06.890Z,21.60
2019-05-29T15:41:37.937Z,21.60
2019-05-29T15:44:09.181Z,21.60
2019-05-29T15:46:39.775Z,21.60
2019-05-29T15:49:11.125Z,21.60
2019-05-29T15:51:43.276Z,21.60
2019-05-29T15:54:15.300Z,21.60
2019-05-29T15:56:47.256Z,21.60
2019-05-29T15:59:19.130Z,21.60
2019-05-29T16:01:50.744Z,21.50
2019-05-29T16:04:21.895Z,21.60
2019-05-29T16:06:54.989Z,21.60
2019-05-29T16:09:24.828Z,21.60
2019-05-29T16:11:55.459Z,21.60
2019-05-29T16:14:26.659Z,21.60
2019-05-29T16:16:57.487Z,21.60
2019-05-29T16:19:30.274Z,21.60
2019-05-29T16:22:00.067Z,21.60
2019-05-29T16:24:30.935Z,21.60
2019-05-29T16:27:08.764Z,21.60
2019-05-29T16:29:34.172Z,21.60
2019-05-29T16:32:03.898Z,21.60
2019-05-29T16:34:34.395Z,21.60
2019-05-29T16:37:05.640Z,21.60
2019-05-29T16:39:35.418Z,21.60
2019-05-29T16:42:06.544Z,21.60
2019-05-29T16:44:37.145Z,21.50
2019-05-29T16:47:07.512Z,21.60
2019-05-29T16:49:37.882Z,21.60
2019-05-29T16:52:08.802Z,21.50
2019-05-29T16:54:38.832Z,21.50
2019-05-29T16:57:08.756Z,21.50
2019-05-29T16:59:38.903Z,21.50
2019-05-29T17:02:08.764Z,21.50
2019-05-29T17:04:38.744Z,21.50
2019-05-29T17:07:08.727Z,21.50
2019-05-29T17:09:38.783Z,21.50
2019-05-29T17:12:08.513Z,21.50
2019-05-29T17:14:38.115Z,21.50
2019-05-29T17:17:07.819Z,21.50
2019-05-29T17:19:37.623Z,21.50
2019-05-29T17:22:07.221Z,21.50
2019-05-29T17:24:36.786Z,21.50
2019-05-29T17:27:06.548Z,21.60
2019-05-29T17:29:36.438Z,21.50
2019-05-29T17:32:06.281Z,21.50
2019-05-29T17:34:36.111Z,21.50
2019-05-29T17:37:05.797Z,21.50
2019-05-29T17:39:35.563Z,21.50
2019-05-29T17:42:05.401Z,21.50
2019-05-29T17:44:35.127Z,21.40
2019-05-29T17:47:04.891Z,21.40
2019-05-29T17:49:34.863Z,21.40
2019-05-29T17:52:05.009Z,21.40
2019-05-29T17:54:34.676Z,21.40
2019-05-29T17:57:04.625Z,21.40
2019-05-29T17:59:35.780Z,21.40
2019-05-29T18:02:05.527Z,21.40
2019-05-29T18:04:35.203Z,21.30
2019-05-29T18:07:05.001Z,21.40
2019-05-29T18:09:34.709Z,21.40
2019-05-29T18:12:04.372Z,21.40
2019-05-29T18:14:34.047Z,21.30
2019-05-29T18:17:03.861Z,21.30
2019-05-29T18:19:36.164Z,21.30
2019-05-29T18:22:05.979Z,21.30
2019-05-29T18:24:35.662Z,21.30
2019-05-29T18:27:05.271Z,21.30
2019-05-29T18:29:34.907Z,21.30
2019-05-29T18:32:04.542Z,21.30
2019-05-29T18:34:34.195Z,21.30
2019-05-29T18:37:03.863Z,21.30
2019-05-29T18:39:33.574Z,21.30
2019-05-29T18:42:03.122Z,21.20
2019-05-29T18:44:33.075Z,21.20
2019-05-29T18:47:03.337Z,21.20
2019-05-29T18:49:32.947Z,21.20
2019-05-29T18:52:02.563Z,21.20
2019-05-29T18:54:33.106Z,21.20
2019-05-29T18:57:15.210Z,21.20
2019-05-29T18:59:34.635Z,21.20
2019-05-29T19:02:04.286Z,21.10
2019-05-29T19:04:33.919Z,21.10
2019-05-29T19:07:03.537Z,21.10
2019-05-29T19:09:33.186Z,21.10
2019-05-29T19:12:02.811Z,21.10
2019-05-29T19:14:32.624Z,21.10
2019-05-29T19:17:02.296Z,21.10
2019-05-29T19:19:33.532Z,21.10
2019-05-29T19:22:03.098Z,21.10
2019-05-29T19:24:34.467Z,21.00
2019-05-29T19:27:04.100Z,21.00
2019-05-29T19:29:33.796Z,21.10
2019-05-29T19:32:03.375Z,21.00
2019-05-29T19:34:33.633Z,21.00
2019-05-29T19:37:03.812Z,21.00
2019-05-29T19:39:34.148Z,21.00
2019-05-29T19:42:04.360Z,21.00
2019-05-29T19:44:34.583Z,21.00
2019-05-29T19:47:04.809Z,21.00
2019-05-29T19:49:35.321Z,21.00
2019-05-29T19:52:05.452Z,21.00
2019-05-29T19:54:36.149Z,21.00
2019-05-29T19:57:05.713Z,20.90
2019-05-29T19:59:36.297Z,20.90
2019-05-29T20:02:06.087Z,20.90
2019-05-29T20:04:36.866Z,20.90
2019-05-29T20:07:06.844Z,20.90
2019-05-29T20:09:37.605Z,20.90
2019-05-29T20:12:07.408Z,20.90
2019-05-29T20:14:38.114Z,20.90
2019-05-29T20:17:07.879Z,20.80
2019-05-29T20:19:40.708Z,20.90
2019-05-29T20:22:08.871Z,20.80
2019-05-29T20:24:39.091Z,20.90
2019-05-29T20:27:09.451Z,20.80
2019-05-29T20:29:39.198Z,20.80
2019-05-29T20:32:08.933Z,20.80
2019-05-29T20:34:39.031Z,20.80
2019-05-29T20:37:08.816Z,20.80
2019-05-29T20:39:38.604Z,20.80
2019-05-29T20:42:08.447Z,20.80
2019-05-29T20:44:38.727Z,20.80
2019-05-29T20:47:09.032Z,20.80
2019-05-29T20:49:40.374Z,20.80
2019-05-29T20:52:09.980Z,20.80
2019-05-29T20:54:39.763Z,20.80
2019-05-29T20:57:13.027Z,20.80
2019-05-29T20:59:42.713Z,20.70
2019-05-29T21:02:12.354Z,20.70
2019-05-29T21:04:42.817Z,20.80
2019-05-29T21:07:13.040Z,20.70
2019-05-29T21:09:43.298Z,20.70
2019-05-29T21:12:13.105Z,20.70
2019-05-29T21:14:44.608Z,20.70
2019-05-29T21:17:14.213Z,20.70
2019-05-29T21:19:44.724Z,20.70
2019-05-29T21:22:15.034Z,20.60
2019-05-29T21:24:49.727Z,20.60
2019-05-29T21:27:16.308Z,20.60
2019-05-29T21:29:45.944Z,20.70
2019-05-29T21:32:15.521Z,20.60
2019-05-29T21:34:46.867Z,20.60
2019-05-29T21:37:16.491Z,20.60
2019-05-29T21:39:46.666Z,20.60
2019-05-29T21:42:18.474Z,20.60
2019-05-29T21:44:48.118Z,20.60
2019-05-29T21:47:17.740Z,20.60
2019-05-29T21:49:47.587Z,20.60
2019-05-29T21:52:17.802Z,20.60
2019-05-29T21:54:47.663Z,20.50
2019-05-29T21:57:18.950Z,20.60
2019-05-29T21:59:48.630Z,20.50
2019-05-29T22:02:18.330Z,20.50
2019-05-29T22:04:48.665Z,20.50
2019-05-29T22:07:18.942Z,20.50
2019-05-29T22:09:48.506Z,20.50
2019-05-29T22:12:18.222Z,20.50
2019-05-29T22:14:47.784Z,20.50
2019-05-29T22:17:17.387Z,20.50
2019-05-29T22:19:47.050Z,20.50
2019-05-29T22:22:16.643Z,20.50
2019-05-29T22:24:46.324Z,20.50
2019-05-29T22:27:15.928Z,20.40
2019-05-29T22:29:45.512Z,20.50
2019-05-29T22:32:15.135Z,20.40
2019-05-29T22:34:44.779Z,20.40
2019-05-29T22:37:14.361Z,20.40
2019-05-29T22:39:44.078Z,20.40
2019-05-29T22:42:13.657Z,20.40
2019-05-29T22:44:43.319Z,20.40
2019-05-29T22:47:12.992Z,20.40
2019-05-29T22:49:42.602Z,20.40
2019-05-29T22:52:13.859Z,20.40
2019-05-29T22:54:43.453Z,20.40
2019-05-29T22:57:13.122Z,20.40
2019-05-29T22:59:42.701Z,20.40
2019-05-29T23:02:12.312Z,20.40
2019-05-29T23:04:41.889Z,20.30
2019-05-29T23:07:11.549Z,20.30
2019-05-29T23:09:41.231Z,20.30
2019-05-29T23:12:12.073Z,20.30
2019-05-29T23:14:41.710Z,20.30
2019-05-29T23:17:11.637Z,20.30
2019-05-29T23:19:41.212Z,20.30
2019-05-29T23:22:10.861Z,20.30
2019-05-29T23:24:42.049Z,20.30
2019-05-29T23:27:11.617Z,20.20
2019-05-29T23:29:48.994Z,20.30
2019-05-29T23:32:12.554Z,20.30
2019-05-29T23:34:42.184Z,20.20
2019-05-29T23:37:13.826Z,20.30
2019-05-29T23:39:43.121Z,20.20
2019-05-29T23:42:12.726Z,20.20
2019-05-29T23:44:42.379Z,20.20
2019-05-29T23:47:11.983Z,20.20
2019-05-29T23:49:41.635Z,20.20
2019-05-29T23:52:11.299Z,20.20
2019-05-29T23:54:40.942Z,20.20
2019-05-29T23:57:10.569Z,20.20
2019-05-29T23:59:40.184Z,20.20
